Time;durP1;ratioP1;P1;durP2;ratioP2;P2;SDS_P1;SDS_P2;PMS_P1;PMS_P2;Temp;Humidity;BMP_temperature;BMP_pressure;BME280_temperature;BME280_humidity;BME280_pressure;Samples;Min_cycle;Max_cycle;Signal;HPM_P1;HPM_P2
2023/10/20 00:01:27;;;;;;;25.10;13.93;;;;;;;11.82;70.03;94720.44;4974982;28;20447;-82
2023/10/20 00:03:53;;;;;;;32.85;16.30;;;;;;;11.84;70.80;94749.34;4976170;28;20117;-83
2023/10/20 00:06:18;;;;;;;31.33;15.68;;;;;;;12.11;71.48;94826.50;4992162;28;20039;-82
2023/10/20 00:08:44;;;;;;;27.33;14.05;;;;;;;12.08;70.91;94791.72;4994346;28;20061;-83
2023/10/20 00:11:10;;;;;;;28.50;14.77;;;;;;;12.22;70.83;94809.28;4994068;28;20101;-84
2023/10/20 00:13:36;;;;;;;25.58;14.27;;;;;;;12.21;70.55;94797.06;4997065;28;20038;-84
2023/10/20 00:16:03;;;;;;;24.63;14.48;;;;;;;12.15;70.60;94798.25;4997016;28;20493;-84
2023/10/20 00:18:29;;;;;;;23.35;13.45;;;;;;;12.17;71.19;94822.66;4995508;28;20489;-84
2023/10/20 00:20:54;;;;;;;21.13;13.38;;;;;;;11.68;71.16;94740.00;4995771;28;20041;-83
2023/10/20 00:23:20;;;;;;;24.17;13.90;;;;;;;11.77;71.16;94736.44;4996602;28;20034;-83
2023/10/20 00:25:45;;;;;;;27.23;14.70;;;;;;;11.71;70.97;94723.50;4996640;28;20413;-83
2023/10/20 00:28:11;;;;;;;27.23;13.15;;;;;;;12.21;71.09;94817.56;4995164;28;20034;-83
2023/10/20 00:30:40;;;;;;;22.25;13.23;;;;;;;11.81;71.09;94758.69;4995037;28;20030;-83
2023/10/20 00:33:05;;;;;;;22.83;13.27;;;;;;;11.84;70.71;94744.81;4996539;28;20125;-83
2023/10/20 00:35:31;;;;;;;19.05;12.80;;;;;;;12.23;70.91;94804.75;4996232;28;20414;-82
2023/10/20 00:37:58;;;;;;;22.25;12.90;;;;;;;11.87;71.34;94762.06;4994568;28;20091;-82
2023/10/20 00:40:24;;;;;;;29.17;13.07;;;;;;;11.95;71.23;94770.16;4996688;28;20049;-83
2023/10/20 00:42:49;;;;;;;22.58;13.50;;;;;;;11.93;71.18;94755.56;4995544;28;20038;-83
2023/10/20 00:45:15;;;;;;;23.77;12.75;;;;;;;11.70;71.32;94721.91;4997101;28;20050;-82
2023/10/20 00:47:43;;;;;;;17.50;12.30;;;;;;;11.59;71.41;94735.34;4995920;28;20045;-83
2023/10/20 00:50:11;;;;;;;28.17;14.15;;;;;;;12.06;71.61;94794.66;4995220;28;20026;-83
2023/10/20 00:52:38;;;;;;;22.55;13.55;;;;;;;11.94;71.67;94773.09;4994826;28;20125;-83
2023/10/20 00:55:07;;;;;;;21.92;13.38;;;;;;;11.64;71.63;94752.31;4996944;28;20034;-83
2023/10/20 00:57:34;;;;;;;25.35;13.63;;;;;;;11.57;72.71;94763.31;4991262;28;20096;-84
2023/10/20 01:00:00;;;;;;;24.30;13.40;;;;;;;11.66;72.65;94772.19;4994902;28;20038;-83
2023/10/20 01:02:25;;;;;;;26.30;15.10;;;;;;;11.59;72.45;94734.59;4993033;28;20035;-84
2023/10/20 01:04:51;;;;;;;25.65;15.50;;;;;;;11.41;72.93;94730.09;4988630;28;20078;-84
2023/10/20 01:07:17;;;;;;;23.27;14.18;;;;;;;11.34;72.77;94697.81;4991724;28;20044;-85
2023/10/20 01:09:43;;;;;;;24.15;13.45;;;;;;;12.00;72.29;94795.84;4983782;28;20076;-85
2023/10/20 01:12:09;;;;;;;28.13;15.45;;;;;;;11.69;72.12;94768.94;4990749;28;20038;-85
2023/10/20 01:14:35;;;;;;;26.73;15.25;;;;;;;11.74;72.49;94765.44;4990258;28;20485;-86
2023/10/20 01:17:01;;;;;;;30.40;15.27;;;;;;;11.50;72.11;94728.34;4991611;28;20072;-85
2023/10/20 01:19:27;;;;;;;26.08;16.35;;;;;;;11.80;72.39;94762.44;4990059;28;20081;-84
2023/10/20 01:21:52;;;;;;;29.83;16.20;;;;;;;11.96;72.28;94782.38;4993562;28;20030;-85
2023/10/20 01:24:18;;;;;;;31.40;17.10;;;;;;;12.01;72.21;94775.38;4995355;28;20077;-85
2023/10/20 01:26:43;;;;;;;34.33;16.70;;;;;;;11.70;72.10;94740.50;4998881;28;20038;-85
2023/10/20 01:29:12;;;;;;;30.58;16.75;;;;;;;11.90;71.76;94772.88;4998412;28;20041;-85
2023/10/20 01:31:38;;;;;;;27.10;16.40;;;;;;;11.70;72.08;94753.78;4998419;28;20122;-86
2023/10/20 01:34:04;;;;;;;30.70;15.70;;;;;;;11.37;72.20;94698.00;4996564;28;20157;-84
2023/10/20 01:36:29;;;;;;;30.10;16.75;;;;;;;11.76;72.63;94752.66;4996120;28;20042;-85
2023/10/20 01:38:55;;;;;;;31.35;15.80;;;;;;;11.21;72.17;94683.41;4996217;28;20042;-85
2023/10/20 01:41:20;;;;;;;33.63;16.92;;;;;;;11.54;72.78;94727.47;4997260;28;20043;-85
2023/10/20 01:43:46;;;;;;;28.15;16.70;;;;;;;11.54;72.72;94713.41;5001693;28;20042;-85
2023/10/20 01:46:11;;;;;;;25.45;15.73;;;;;;;11.83;72.41;94759.19;4994950;28;20038;-85
2023/10/20 01:48:37;;;;;;;27.77;14.73;;;;;;;11.55;72.32;94705.16;4996514;28;20046;-85
2023/10/20 01:51:03;;;;;;;29.88;16.67;;;;;;;11.26;72.17;94659.44;4992881;28;20039;-85
2023/10/20 01:53:29;;;;;;;27.63;15.40;;;;;;;11.89;72.12;94749.28;4993452;28;20413;-84
2023/10/20 01:55:54;;;;;;;32.28;16.00;;;;;;;11.86;72.54;94773.75;4993502;28;20058;-85
2023/10/20 01:58:21;;;;;;;24.20;14.63;;;;;;;11.66;72.67;94727.03;4993390;28;20026;-85
2023/10/20 02:00:50;;;;;;;26.27;14.30;;;;;;;11.30;72.56;94665.72;4993198;28;20429;-85
2023/10/20 02:03:17;;;;;;;29.25;15.02;;;;;;;11.48;72.52;94699.44;4995473;28;20057;-85
2023/10/20 02:05:43;;;;;;;25.17;15.18;;;;;;;11.63;72.24;94727.59;4993002;28;20058;-85
2023/10/20 02:08:09;;;;;;;34.53;16.42;;;;;;;11.88;72.25;94774.25;4993274;28;20053;-85
2023/10/20 02:10:38;;;;;;;25.27;14.20;;;;;;;11.45;72.18;94697.34;4994978;28;20070;-84
2023/10/20 02:13:03;;;;;;;28.27;15.75;;;;;;;11.55;72.28;94712.34;4996708;28;20097;-82
2023/10/20 02:15:29;;;;;;;24.95;15.15;;;;;;;11.21;72.02;94668.25;4996714;28;20035;-82
2023/10/20 02:17:56;;;;;;;26.67;14.93;;;;;;;11.72;72.45;94754.31;4997949;28;20034;-82
2023/10/20 02:20:23;;;;;;;26.15;15.48;;;;;;;11.38;74.02;94738.63;4997030;28;20030;-82
2023/10/20 02:22:52;;;;;;;28.15;14.02;;;;;;;11.45;73.15;94734.53;4992047;28;20489;-82
2023/10/20 02:25:22;;;;;;;24.23;13.90;;;;;;;11.41;73.48;94724.78;5015300;28;20148;-82
2023/10/20 02:27:47;;;;;;;26.92;13.93;;;;;;;11.57;73.20;94752.69;4993406;28;20049;-84
2023/10/20 02:30:15;;;;;;;23.83;13.25;;;;;;;10.77;72.86;94631.50;4992619;28;20050;-82
2023/10/20 02:32:41;;;;;;;32.33;13.95;;;;;;;11.25;72.82;94681.75;4994922;28;20442;-82
2023/10/20 02:35:11;;;;;;;24.55;14.18;;;;;;;11.21;72.62;94688.72;4999019;28;20022;-82
2023/10/20 02:37:36;;;;;;;23.27;12.82;;;;;;;11.56;72.70;94751.88;5005106;28;20117;-82
2023/10/20 02:40:04;;;;;;;30.20;14.45;;;;;;;11.23;72.93;94703.25;4995757;28;20460;-82
2023/10/20 02:42:33;;;;;;;34.08;16.25;;;;;;;9.76;72.44;94454.56;4994365;28;20141;-82
2023/10/20 02:44:59;;;;;;;26.02;13.57;;;;;;;11.72;72.56;94764.94;4996064;28;20057;-82
2023/10/20 02:47:25;;;;;;;24.48;13.38;;;;;;;11.58;72.08;94747.09;5007915;28;20031;-83
2023/10/20 02:49:57;;;;;;;27.52;13.82;;;;;;;11.60;72.12;94773.31;4989740;28;20050;-82
2023/10/20 02:52:24;;;;;;;24.25;12.82;;;;;;;11.10;72.51;94696.03;4995827;28;20122;-82
2023/10/20 02:54:53;;;;;;;27.75;13.07;;;;;;;11.65;72.50;94769.81;4995969;28;20630;-81
2023/10/20 02:57:22;;;;;;;31.13;14.00;;;;;;;11.09;72.05;94696.31;4994497;28;20062;-83
2023/10/20 02:59:48;;;;;;;23.20;13.75;;;;;;;11.13;73.10;94726.53;4995963;28;20552;-81
2023/10/20 03:02:15;;;;;;;25.02;13.32;;;;;;;11.31;73.59;94757.56;4996155;28;20110;-81
2023/10/20 03:04:41;;;;;;;25.95;13.88;;;;;;;11.38;73.68;94759.84;5001364;28;20056;-81
2023/10/20 03:07:08;;;;;;;25.75;13.18;;;;;;;11.25;73.11;94728.72;5016037;28;20033;-82
2023/10/20 03:09:35;;;;;;;21.58;13.00;;;;;;;11.18;73.06;94721.13;5015744;28;20405;-81
2023/10/20 03:12:01;;;;;;;24.55;13.23;;;;;;;11.11;72.94;94702.91;4998227;28;20148;-82
2023/10/20 03:14:26;;;;;;;21.70;13.13;;;;;;;11.29;72.86;94730.50;4998427;28;20080;-82
2023/10/20 03:16:52;;;;;;;27.00;13.85;;;;;;;11.23;72.96;94721.84;5015939;28;20029;-81
2023/10/20 03:19:17;;;;;;;23.42;11.77;;;;;;;11.16;73.04;94725.94;5011120;28;20045;-81
2023/10/20 03:21:43;;;;;;;23.17;13.48;;;;;;;11.23;72.78;94729.81;4990606;28;20034;-81
2023/10/20 03:24:09;;;;;;;24.33;12.82;;;;;;;11.07;72.96;94701.13;4997839;28;20026;-81
2023/10/20 03:26:34;;;;;;;31.38;13.55;;;;;;;10.87;72.84;94659.75;4998443;28;20065;-81
2023/10/20 03:29:00;;;;;;;23.63;13.18;;;;;;;11.27;72.72;94729.25;5015547;28;20408;-81
2023/10/20 03:31:25;;;;;;;27.52;13.32;;;;;;;11.03;73.29;94708.88;4997066;28;20409;-81
2023/10/20 03:33:50;;;;;;;34.40;13.77;;;;;;;11.18;73.01;94729.88;4997042;28;20033;-81
2023/10/20 03:36:16;;;;;;;22.63;13.13;;;;;;;11.22;73.22;94733.53;5015316;28;20034;-81
2023/10/20 03:38:42;;;;;;;28.50;14.55;;;;;;;10.81;72.56;94672.31;5015223;28;20037;-81
2023/10/20 03:41:11;;;;;;;31.17;15.50;;;;;;;10.92;72.92;94696.03;4997015;28;20034;-85
2023/10/20 03:43:37;;;;;;;30.15;14.18;;;;;;;11.34;73.07;94738.41;4996820;28;20389;-85
2023/10/20 03:46:04;;;;;;;24.60;13.32;;;;;;;11.37;73.22;94734.38;4996230;28;20045;-85
2023/10/20 03:48:31;;;;;;;30.73;15.27;;;;;;;11.25;72.77;94710.94;4996843;28;20048;-85
2023/10/20 03:50:58;;;;;;;33.45;14.27;;;;;;;11.03;72.22;94694.81;5015419;28;20162;-85
2023/10/20 03:53:39;;;;;;;30.90;14.80;;;;;;;11.03;72.84;94702.78;5013849;28;20041;-83
2023/10/20 03:56:07;;;;;;;;;;;;;;;11.26;72.98;94727.66;4994506;28;20037;-84
2023/10/20 03:58:35;;;;;;;78.55;36.63;;;;;;;11.15;73.28;94714.53;4993779;28;20340;-84
2023/10/20 04:01:02;;;;;;;63.30;31.42;;;;;;;11.08;73.26;94714.09;4993595;28;20130;-84
2023/10/20 04:03:30;;;;;;;47.30;19.65;;;;;;;10.93;73.30;94677.16;4993667;28;20564;-84
2023/10/20 04:05:56;;;;;;;32.80;16.80;;;;;;;11.12;73.01;94711.69;4992848;28;20557;-84
2023/10/20 04:08:23;;;;;;;40.00;20.23;;;;;;;11.26;73.05;94730.31;4994552;28;20044;-83
2023/10/20 04:10:48;;;;;;;44.70;20.13;;;;;;;10.88;72.69;94668.50;4992909;28;20069;-83
2023/10/20 04:13:14;;;;;;;43.05;19.23;;;;;;;10.89;72.86;94683.34;5010240;28;20025;-83
2023/10/20 04:15:40;;;;;;;34.38;17.23;;;;;;;10.39;73.57;94611.34;4991774;28;20037;-83
2023/10/20 04:18:06;;;;;;;33.85;17.10;;;;;;;11.14;73.04;94726.22;5006403;28;20124;-83
2023/10/20 04:20:41;;;;;;;38.38;18.98;;;;;;;10.89;72.82;94686.00;5006239;28;20137;-83
2023/10/20 04:23:08;;;;;;;38.45;17.17;;;;;;;10.86;73.20;94718.41;4981811;28;20429;-84
2023/10/20 04:25:52;;;;;;;36.67;17.60;;;;;;;11.03;73.73;94735.41;4980940;28;20105;-85
2023/10/20 04:28:20;;;;;;;36.95;18.77;;;;;;;11.03;73.40;94745.25;4978198;28;20049;-84
2023/10/20 04:58:04;;;;;;;40.17;18.27;;;;;;;10.57;73.43;94679.53;4986330;28;20041;-84
2023/10/20 05:03:15;;;;;;;36.80;17.10;;;;;;;10.37;74.03;94650.63;4994388;28;20500;-84
2023/10/20 05:05:44;;;;;;;37.80;17.65;;;;;;;10.55;73.78;94675.56;4980910;28;20061;-84
2023/10/20 05:10:41;;;;;;;38.30;19.02;;;;;;;10.87;74.04;94749.94;4986950;28;20295;-83
2023/10/20 05:13:06;;;;;;;34.88;18.10;;;;;;;10.73;74.50;94735.81;4960512;28;20049;-84
2023/10/20 05:15:38;;;;;;;36.17;19.48;;;;;;;10.33;74.36;94657.56;4980665;28;20034;-84
2023/10/20 05:18:26;;;;;;;39.40;18.83;;;;;;;10.11;74.73;94651.97;5002469;28;20034;-83
2023/10/20 05:20:51;;;;;;;41.72;19.67;;;;;;;10.22;75.41;94661.41;5000753;28;20053;-85
2023/10/20 05:23:16;;;;;;;44.53;21.02;;;;;;;10.87;74.91;94749.94;4985769;28;20426;-85
2023/10/20 05:25:47;;;;;;;48.72;20.60;;;;;;;10.77;74.43;94737.59;5005825;28;20064;-89
2023/10/20 05:28:12;;;;;;;49.42;20.75;;;;;;;10.60;74.97;94705.47;4984167;28;20053;-86
2023/10/20 05:30:42;;;;;;;39.60;20.15;;;;;;;10.91;75.09;94761.56;5006033;28;20042;-86
2023/10/20 05:33:09;;;;;;;49.22;21.60;;;;;;;10.32;74.60;94654.13;4988932;28;20037;-85
2023/10/20 05:35:34;;;;;;;51.75;22.42;;;;;;;11.09;74.80;94767.97;4983111;28;20029;-84
2023/10/20 05:38:00;;;;;;;53.22;22.30;;;;;;;10.91;74.89;94763.44;4998058;28;20657;-83
2023/10/20 05:40:25;;;;;;;40.08;19.98;;;;;;;10.99;75.26;94760.94;5004329;28;20049;-83
2023/10/20 05:42:57;;;;;;;46.25;22.48;;;;;;;10.49;75.69;94709.31;4994644;28;20045;-88
2023/10/20 05:45:47;;;;;;;;;;;;;;;11.11;75.43;94773.78;5002127;28;20037;-88
2023/10/20 05:48:15;;;;;;;37.40;20.35;;;;;;;9.15;75.75;94458.72;4995480;28;20383;-87
2023/10/20 05:50:40;;;;;;;35.78;19.60;;;;;;;9.07;75.11;94440.84;5006212;28;20053;-84
2023/10/20 05:53:06;;;;;;;42.70;18.92;;;;;;;10.22;75.20;94617.13;5026134;28;20097;-85
2023/10/20 05:55:32;;;;;;;46.47;21.10;;;;;;;11.34;75.07;94786.22;5022519;28;20037;-84
2023/10/20 05:57:58;;;;;;;44.33;19.58;;;;;;;11.37;75.19;94780.31;5009669;28;20032;-87
2023/10/20 06:00:24;;;;;;;33.83;19.60;;;;;;;11.02;75.02;94711.81;5007171;28;20038;-84
2023/10/20 06:02:50;;;;;;;41.92;19.88;;;;;;;11.46;74.57;94757.34;5009050;28;20463;-87
2023/10/20 06:05:18;;;;;;;38.50;20.30;;;;;;;10.58;74.56;94604.22;5002493;28;20050;-89
2023/10/20 06:07:44;;;;;;;41.70;19.85;;;;;;;11.08;74.26;94671.66;4986191;28;20046;-87
2023/10/20 06:10:13;;;;;;;40.22;21.02;;;;;;;11.47;73.88;94736.88;4975589;28;20040;-88
2023/10/20 06:12:39;;;;;;;38.70;20.40;;;;;;;11.30;73.79;94710.84;4980174;28;20386;-88
2023/10/20 06:15:09;;;;;;;42.70;21.65;;;;;;;11.43;73.82;94727.94;4979395;28;20049;-87
2023/10/20 06:17:35;;;;;;;37.45;21.20;;;;;;;11.35;73.49;94716.09;4991053;28;20042;-87
2023/10/20 06:20:05;;;;;;;38.20;21.85;;;;;;;11.42;73.83;94699.81;4990395;28;20502;-87
2023/10/20 06:22:31;;;;;;;42.03;20.85;;;;;;;11.83;73.81;94763.69;4984169;28;20043;-87
2023/10/20 06:24:58;;;;;;;38.03;19.60;;;;;;;11.15;73.34;94642.09;4984265;28;20330;-89
2023/10/20 06:27:23;;;;;;;43.85;20.13;;;;;;;12.08;73.57;94783.75;4990515;28;20054;-86
2023/10/20 06:29:56;;;;;;;40.10;20.17;;;;;;;12.18;73.60;94784.38;4996229;28;20089;-85
2023/10/20 06:32:25;;;;;;;41.05;21.30;;;;;;;11.98;73.62;94740.31;4998861;28;20144;-84
2023/10/20 06:34:53;;;;;;;37.22;20.30;;;;;;;12.10;73.63;94757.69;4996019;28;20097;-85
2023/10/20 06:37:31;;;;;;;43.55;20.73;;;;;;;12.10;74.27;94734.53;4985975;28;20044;-88
2023/10/20 06:39:56;;;;;;;38.20;21.33;;;;;;;10.33;73.65;94434.94;4996620;28;20176;-86
2023/10/20 06:42:24;;;;;;;31.38;18.40;;;;;;;11.50;73.27;94612.31;4984505;28;20096;-86
2023/10/20 06:44:50;;;;;;;37.35;18.15;;;;;;;10.48;72.94;94447.94;4975040;28;20456;-86
2023/10/20 06:47:16;;;;;;;34.58;17.80;;;;;;;10.59;72.72;94452.00;4976085;28;20452;-85
2023/10/20 06:49:43;;;;;;;35.28;18.13;;;;;;;10.26;72.32;94381.50;4971253;28;20646;-85
2023/10/20 06:52:08;;;;;;;32.80;15.95;;;;;;;12.47;72.11;94701.66;4978773;28;20034;-85
2023/10/20 06:54:36;;;;;;;32.28;17.75;;;;;;;11.70;71.33;94566.00;4977497;28;20036;-84
2023/10/20 06:57:01;;;;;;;29.92;16.67;;;;;;;11.91;70.87;94611.56;4976644;28;20037;-84
2023/10/20 06:59:29;;;;;;;35.63;18.65;;;;;;;13.20;70.50;94777.91;4971403;28;20843;-84
2023/10/20 07:02:00;;;;;;;32.38;18.05;;;;;;;11.97;70.27;94576.66;5005068;28;20042;-84
2023/10/20 07:04:26;;;;;;;25.90;17.23;;;;;;;12.11;70.04;94579.31;4977112;28;20042;-86
2023/10/20 07:06:52;;;;;;;34.55;19.42;;;;;;;13.61;69.46;94783.13;4957303;28;20109;-85
2023/10/20 07:09:18;;;;;;;41.25;18.50;;;;;;;10.85;68.97;94359.50;4966101;28;20116;-85
2023/10/20 07:11:44;;;;;;;34.55;17.73;;;;;;;13.44;69.38;94732.34;4947547;28;20046;-84
2023/10/20 07:14:10;;;;;;;25.52;16.15;;;;;;;13.67;68.68;94762.47;4964742;28;20066;-88
2023/10/20 07:16:36;;;;;;;24.60;14.95;;;;;;;11.93;68.20;94481.88;4973000;28;20603;-88
2023/10/20 07:19:02;;;;;;;26.83;15.40;;;;;;;12.64;68.04;94578.72;4976500;28;20053;-87
2023/10/20 07:21:30;;;;;;;40.72;19.95;;;;;;;13.44;67.83;94692.41;4967575;28;20042;-88
2023/10/20 07:23:56;;;;;;;29.98;17.70;;;;;;;13.47;67.92;94689.16;4969888;28;20038;-85
2023/10/20 07:26:24;;;;;;;28.88;16.52;;;;;;;12.54;67.49;94525.72;4961005;28;20157;-86
2023/10/20 07:28:50;;;;;;;34.90;17.83;;;;;;;13.75;67.72;94711.09;4968028;28;20533;-89
2023/10/20 07:31:21;;;;;;;28.90;17.20;;;;;;;14.28;67.55;94775.88;4964322;28;20106;-86
2023/10/20 07:33:49;;;;;;;26.15;14.82;;;;;;;14.32;67.33;94784.06;4972282;28;20042;-87
2023/10/20 07:36:16;;;;;;;26.48;15.88;;;;;;;13.92;67.55;94732.53;4968998;28;20098;-86
2023/10/20 07:38:42;;;;;;;26.58;16.10;;;;;;;13.72;67.59;94687.75;4963464;28;20476;-88
2023/10/20 07:41:11;;;;;;;28.52;16.92;;;;;;;14.42;67.28;94791.81;4964309;28;20082;-87
2023/10/20 07:43:38;;;;;;;42.65;17.58;;;;;;;14.46;67.13;94790.13;4965802;28;20034;-86
2023/10/20 07:46:04;;;;;;;37.28;18.70;;;;;;;14.45;67.00;94790.44;4961352;28;20596;-87
2023/10/20 07:48:34;;;;;;;39.67;18.38;;;;;;;14.09;66.91;94721.97;4970324;28;20142;-84
2023/10/20 07:51:00;;;;;;;40.65;20.70;;;;;;;13.97;67.17;94695.09;4968405;28;20229;-89
2023/10/20 07:53:31;;;;;;;44.58;18.50;;;;;;;14.59;67.26;94797.25;4975837;28;20043;-88
2023/10/20 07:55:56;;;;;;;39.47;19.08;;;;;;;14.12;66.70;94701.91;4956212;28;20050;-86
2023/10/20 07:58:22;;;;;;;31.42;18.67;;;;;;;13.85;67.29;94646.91;4985116;28;20138;-84
2023/10/20 08:00:48;;;;;;;30.48;18.67;;;;;;;14.67;67.08;94767.13;4967711;28;20042;-85
2023/10/20 08:03:13;;;;;;;37.72;19.27;;;;;;;14.70;66.54;94754.28;4960370;28;20050;-83
2023/10/20 08:05:39;;;;;;;44.47;18.80;;;;;;;14.59;66.45;94733.19;4984059;28;20630;-85
2023/10/20 08:08:05;;;;;;;46.33;19.48;;;;;;;14.33;66.14;94692.28;4994178;28;20045;-84
2023/10/20 08:10:32;;;;;;;39.33;18.25;;;;;;;14.43;65.87;94694.69;5008581;28;20049;-83
2023/10/20 08:12:59;;;;;;;28.70;13.95;;;;;;;14.63;65.89;94722.72;4997794;28;20038;-83
2023/10/20 08:15:28;;;;;;;28.35;14.45;;;;;;;14.76;65.88;94751.16;4993226;28;20037;-83
2023/10/20 08:17:54;;;;;;;30.48;12.85;;;;;;;15.03;65.63;94774.94;4997838;28;20030;-86
2023/10/20 08:20:20;;;;;;;28.45;12.02;;;;;;;15.09;65.15;94775.59;5001621;28;20044;-85
2023/10/20 08:22:45;;;;;;;25.52;12.10;;;;;;;15.03;65.19;94758.91;4978904;28;20038;-89
2023/10/20 08:25:11;;;;;;;22.70;8.25;;;;;;;14.93;64.96;94763.78;4993241;28;20124;-86
2023/10/20 08:27:36;;;;;;;21.65;9.90;;;;;;;14.96;64.86;94763.94;4991343;28;20179;-86
2023/10/20 08:30:02;;;;;;;29.73;10.85;;;;;;;14.32;65.05;94665.91;5003021;28;20045;-86
2023/10/20 08:32:29;;;;;;;24.02;9.80;;;;;;;15.04;65.03;94771.16;4996208;28;20514;-89
2023/10/20 08:34:54;;;;;;;18.90;8.55;;;;;;;14.76;64.56;94729.00;4991019;28;20082;-86
2023/10/20 08:37:20;;;;;;;28.13;10.73;;;;;;;15.08;64.46;94747.31;5002909;28;20045;-86
2023/10/20 08:39:45;;;;;;;23.58;10.85;;;;;;;15.17;64.33;94769.50;5005704;28;20077;-89
2023/10/20 08:42:21;;;;;;;19.27;10.25;;;;;;;14.06;64.33;94596.47;4978332;28;20678;-85
2023/10/20 08:44:51;;;;;;;30.92;10.55;;;;;;;14.83;64.72;94721.34;5001204;28;20046;-85
2023/10/20 08:47:17;;;;;;;22.92;9.98;;;;;;;15.15;64.66;94762.88;4999491;28;20038;-85
2023/10/20 08:49:43;;;;;;;31.17;10.65;;;;;;;15.10;65.07;94755.81;4983876;28;20044;-86
2023/10/20 08:52:11;;;;;;;28.40;10.35;;;;;;;15.21;64.78;94765.09;4991181;28;20042;-86
2023/10/20 08:54:37;;;;;;;35.97;11.10;;;;;;;15.03;64.84;94724.19;4984541;28;20500;-85
2023/10/20 08:57:04;;;;;;;23.25;10.30;;;;;;;14.64;65.02;94661.03;5004809;28;20038;-88
2023/10/20 08:59:30;;;;;;;24.20;10.18;;;;;;;15.02;64.49;94705.84;5001395;28;20136;-87
2023/10/20 09:01:56;;;;;;;20.52;10.85;;;;;;;15.42;64.35;94755.34;4983365;28;20485;-87
2023/10/20 09:04:23;;;;;;;21.75;11.82;;;;;;;14.73;64.42;94637.00;4983648;28;20041;-86
2023/10/20 09:06:49;;;;;;;21.52;10.38;;;;;;;15.60;64.15;94748.16;4989843;28;20504;-83
2023/10/20 09:09:15;;;;;;;27.38;10.48;;;;;;;15.66;63.59;94757.59;4987004;28;20174;-84
2023/10/20 09:11:43;;;;;;;21.83;9.85;;;;;;;15.27;63.54;94672.22;4982065;28;20034;-82
2023/10/20 09:14:12;;;;;;;26.00;10.32;;;;;;;15.36;63.31;94670.34;4991273;28;20060;-83
2023/10/20 09:16:38;;;;;;;22.88;10.35;;;;;;;15.98;62.83;94748.28;4991002;28;20546;-83
2023/10/20 09:19:04;;;;;;;27.95;10.85;;;;;;;15.98;61.89;94734.13;4986224;28;20092;-83
2023/10/20 09:21:30;;;;;;;18.30;10.55;;;;;;;15.78;61.46;94676.78;4986219;28;20282;-84
2023/10/20 09:24:04;;;;;;;28.42;10.80;;;;;;;15.78;61.24;94672.22;5007718;28;20489;-85
2023/10/20 09:26:34;;;;;;;27.85;11.10;;;;;;;16.34;61.00;94737.19;5014605;28;20053;-84
2023/10/20 09:29:00;;;;;;;19.25;10.48;;;;;;;16.01;60.27;94648.72;5003739;28;20034;-85
2023/10/20 09:31:26;;;;;;;24.60;10.48;;;;;;;16.38;59.94;94662.41;5017604;28;20048;-84
2023/10/20 09:33:53;;;;;;;23.42;8.77;;;;;;;16.46;59.27;94658.91;5001383;28;20162;-84
2023/10/20 09:36:19;;;;;;;32.67;9.60;;;;;;;16.95;59.02;94708.28;5007669;28;20966;-85
2023/10/20 09:38:49;;;;;;;23.70;9.65;;;;;;;17.16;58.64;94703.75;5000061;28;20041;-85
2023/10/20 09:41:17;;;;;;;15.40;7.90;;;;;;;17.33;57.30;94700.91;5006630;28;20053;-85
2023/10/20 09:43:47;;;;;;;23.67;7.25;;;;;;;17.58;57.04;94704.50;4991922;28;20395;-86
2023/10/20 09:46:43;;;;;;;27.85;8.68;;;;;;;17.18;56.41;94625.69;4996588;28;20113;-86
2023/10/20 09:49:20;;;;;;;17.20;7.88;;;;;;;17.67;56.57;94643.56;5015247;28;20035;-86
2023/10/20 09:51:47;;;;;;;17.70;8.55;;;;;;;18.70;56.29;94695.31;5013018;28;20117;-86
2023/10/20 09:54:19;;;;;;;19.55;9.68;;;;;;;19.48;52.97;94689.63;4999402;28;20025;-86
2023/10/20 09:56:45;;;;;;;21.20;7.80;;;;;;;20.49;51.10;94689.25;5006471;28;20037;-87
2023/10/20 09:59:27;;;;;;;15.13;7.13;;;;;;;20.90;47.35;94627.84;5017532;28;20250;-87
2023/10/20 10:01:53;;;;;;;;;;;;;;;21.92;45.31;94675.06;5051239;23;20060;-77
2023/10/20 10:04:30;;;;;;;19.35;8.88;;;;;;;22.34;44.64;94658.88;5042985;28;20546;-77
2023/10/20 10:07:03;;;;;;;15.38;7.65;;;;;;;23.16;43.20;94669.06;5036808;28;20158;-79
2023/10/20 10:09:36;;;;;;;19.95;7.35;;;;;;;23.63;42.11;94678.59;5042630;28;20504;-79
2023/10/20 10:12:10;;;;;;;20.98;8.07;;;;;;;23.61;41.40;94665.44;5034457;28;20037;-78
2023/10/20 10:14:35;;;;;;;19.50;8.05;;;;;;;23.64;41.07;94634.94;5032950;28;20424;-78
2023/10/20 10:17:08;;;;;;;19.95;6.78;;;;;;;23.73;41.45;94618.38;5039892;28;20479;-79
2023/10/20 10:19:33;;;;;;;18.55;6.60;;;;;;;23.69;41.28;94599.41;5037906;28;20660;-78
2023/10/20 10:22:02;;;;;;;18.05;7.53;;;;;;;23.99;41.24;94652.69;5026008;28;20041;-77
2023/10/20 10:24:36;;;;;;;22.25;6.53;;;;;;;24.06;40.43;94631.88;5025237;28;20033;-79
2023/10/20 10:27:04;;;;;;;21.20;6.97;;;;;;;24.19;40.11;94613.41;5015753;28;20024;-80
2023/10/20 10:30:01;;;;;;;15.65;6.22;;;;;;;24.33;40.76;94645.34;4995108;28;20507;-80
2023/10/20 10:32:31;;;;;;;25.35;6.57;;;;;;;24.13;40.23;94647.44;4985635;28;20068;-77
2023/10/20 10:34:58;;;;;;;11.25;4.95;;;;;;;23.66;40.39;94594.72;4996604;28;20044;-78
2023/10/20 10:37:37;;;;;;;19.33;5.70;;;;;;;23.78;40.86;94626.97;5016648;28;20490;-77
2023/10/20 10:40:19;;;;;;;18.27;5.10;;;;;;;23.48;40.96;94574.81;5010951;28;20065;-76
2023/10/20 10:42:49;;;;;;;18.33;4.55;;;;;;;24.05;40.21;94616.00;5013252;28;20064;-77
2023/10/20 10:45:22;;;;;;;14.80;4.22;;;;;;;24.42;39.81;94627.59;5028124;28;20033;-78
2023/10/20 10:48:02;;;;;;;17.77;4.82;;;;;;;24.80;38.89;94622.84;5028633;28;20033;-76
2023/10/20 10:50:27;;;;;;;16.52;4.43;;;;;;;24.87;38.28;94620.22;5028056;28;20049;-76
2023/10/20 10:52:53;;;;;;;15.63;5.00;;;;;;;24.73;38.01;94568.56;5030281;28;20039;-77
2023/10/20 10:55:19;;;;;;;16.00;4.50;;;;;;;25.41;37.15;94616.63;5027999;28;20044;-76
2023/10/20 10:57:44;;;;;;;22.83;4.40;;;;;;;25.58;36.64;94596.16;5030241;28;20115;-77
2023/10/20 11:00:15;;;;;;;12.98;4.35;;;;;;;25.80;35.76;94605.97;5053879;28;20061;-76
2023/10/20 11:02:44;;;;;;;19.75;4.03;;;;;;;26.03;35.81;94608.34;5029054;28;20209;-78
2023/10/20 11:05:11;;;;;;;14.77;4.03;;;;;;;25.94;34.97;94578.81;5026755;28;20147;-78
2023/10/20 11:07:37;;;;;;;15.43;4.25;;;;;;;26.01;34.52;94600.59;5034540;28;20570;-78
2023/10/20 11:10:04;;;;;;;16.80;4.15;;;;;;;26.29;34.90;94609.97;5032837;28;20029;-79
2023/10/20 11:12:32;;;;;;;17.42;4.15;;;;;;;26.54;33.95;94599.13;5018346;28;20574;-79
2023/10/20 11:15:00;;;;;;;10.63;4.20;;;;;;;26.67;34.18;94592.88;5034516;28;20036;-79
2023/10/20 11:17:27;;;;;;;21.88;5.35;;;;;;;26.63;33.72;94600.25;5035542;28;20511;-79
2023/10/20 11:19:53;;;;;;;18.83;4.90;;;;;;;26.65;33.35;94584.34;5028828;28;20499;-80
2023/10/20 11:22:19;;;;;;;14.93;4.60;;;;;;;26.62;33.18;94541.63;5024245;28;20029;-78
2023/10/20 11:24:53;;;;;;;18.88;6.40;;;;;;;26.67;33.79;94573.84;5024851;28;20522;-79
2023/10/20 11:27:19;;;;;;;19.92;5.70;;;;;;;27.03;34.00;94565.63;5032872;28;20048;-77
2023/10/20 11:29:45;;;;;;;18.33;4.72;;;;;;;27.10;32.43;94566.41;5034878;28;20094;-79
2023/10/20 11:32:13;;;;;;;17.42;4.22;;;;;;;27.11;32.67;94529.06;5034510;28;20398;-78
2023/10/20 11:34:45;;;;;;;18.30;5.90;;;;;;;27.36;33.53;94545.31;5035869;28;20099;-78
2023/10/20 11:37:12;;;;;;;23.10;4.47;;;;;;;27.56;32.00;94571.69;5037465;28;20030;-79
2023/10/20 11:39:38;;;;;;;15.75;4.78;;;;;;;27.57;32.66;94556.91;5034603;28;20033;-79
2023/10/20 11:42:04;;;;;;;19.95;4.63;;;;;;;27.54;33.29;94543.31;5032448;28;20033;-79
2023/10/20 11:44:30;;;;;;;16.85;3.97;;;;;;;27.41;32.14;94513.00;5038941;28;20074;-79
2023/10/20 11:46:56;;;;;;;16.42;4.13;;;;;;;26.65;30.88;94388.53;5039632;28;20042;-77
2023/10/20 11:49:24;;;;;;;17.25;4.18;;;;;;;27.52;31.02;94521.91;5051749;28;20090;-79
2023/10/20 11:51:50;;;;;;;24.38;4.55;;;;;;;27.90;30.59;94549.34;5057008;28;20037;-79
2023/10/20 11:54:16;;;;;;;23.77;4.80;;;;;;;27.64;30.35;94515.25;5052071;28;20060;-78